Time,TemperatureF,DewpointF,PressureIn,WindDirection,WindDirectionDegrees,WindSpeedMPH,WindSpeedGustMPH,Humidity,HourlyPrecipIn,Conditions,Clouds,dailyrainin,SoftwareType,DateUTC
2013-01-04 00:13:00,26.0,25.0,30.42,SSE,147,0.0,1.0,96,0.00,,,0.00,weatherlink.com 1.10,2013-01-04 06:13:00,
2013-01-04 00:28:00,25.7,25.0,30.41,SSE,147,0.0,0.0,95,0.00,,,0.00,weatherlink.com 1.10,2013-01-04 06:28:00,
2013-01-04 00:43:00,25.2,24.0,30.42,SE,146,0.0,0.0,95,0.00,,,0.00,weatherlink.com 1.10,2013-01-04 06:43:00,
2013-01-04 00:58:00,24.7,24.0,30.42,SE,146,0.0,0.0,95,0.00,,,0.00,weatherlink.com 1.10,2013-01-04 06:58:00,
2013-01-04 01:13:00,24.6,24.0,30.42,SSE,148,0.0,0.0,96,0.00,,,0.00,weatherlink.com 1.10,2013-01-04 07:13:00,
2013-01-04 01:28:00,24.5,24.0,30.42,SSE,148,0.0,0.0,96,0.00,,,0.00,weatherlink.com 1.10,2013-01-04 07:28:00,
2013-01-04 01:43:00,24.4,24.0,30.43,SSE,148,0.0,0.0,96,0.00,,,0.00,weatherlink.com 1.10,2013-01-04 07:43:00,
2013-01-04 01:58:00,24.2,23.0,30.43,SSE,148,0.0,0.0,96,0.00,,,0.00,weatherlink.com 1.10,2013-01-04 07:58:00,
2013-01-04 02:13:00,24.0,23.0,30.43,SSE,148,0.0,0.0,96,0.00,,,0.00,weatherlink.com 1.10,2013-01-04 08:13:00,
2013-01-04 02:28:00,23.8,23.0,30.44,SSE,148,0.0,0.0,96,0.00,,,0.00,weatherlink.com 1.10,2013-01-04 08:28:00,
2013-01-04 02:44:00,24.1,23.0,30.44,SSE,148,0.0,0.0,97,0.00,,,0.00,weatherlink.com 1.10,2013-01-04 08:44:00,
2013-01-04 02:59:00,24.3,23.0,30.44,SE,134,0.0,0.0,96,0.00,,,0.00,weatherlink.com 1.10,2013-01-04 08:59:00,
2013-01-04 03:14:00,23.5,23.0,30.44,SE,134,0.0,0.0,96,0.00,,,0.00,weatherlink.com 1.10,2013-01-04 09:14:00,
2013-01-04 03:29:00,23.1,22.0,30.45,SE,134,0.0,0.0,96,0.00,,,0.00,weatherlink.com 1.10,2013-01-04 09:29:00,
2013-01-04 03:44:00,22.8,22.0,30.45,SE,134,0.0,0.0,96,0.00,,,0.00,weatherlink.com 1.10,2013-01-04 09:44:00,
2013-01-04 03:59:00,22.3,21.0,30.44,SE,134,0.0,0.0,96,0.00,,,0.00,weatherlink.com 1.10,2013-01-04 09:59:00,
2013-01-04 04:14:00,22.0,21.0,30.44,SE,134,0.0,0.0,96,0.00,,,0.00,weatherlink.com 1.10,2013-01-04 10:14:00,
2013-01-04 04:29:00,21.8,21.0,30.44,SE,134,0.0,0.0,96,0.00,,,0.00,weatherlink.com 1.10,2013-01-04 10:29:00,
2013-01-04 04:44:00,21.9,21.0,30.44,SE,134,0.0,0.0,96,0.00,,,0.00,weatherlink.com 1.10,2013-01-04 10:44:00,
2013-01-04 04:59:00,21.9,21.0,30.44,SE,134,0.0,0.0,96,0.00,,,0.00,weatherlink.com 1.10,2013-01-04 10:59:00,
2013-01-04 05:14:00,21.5,21.0,30.45,SE,134,0.0,0.0,96,0.00,,,0.00,weatherlink.com 1.10,2013-01-04 11:14:00,
2013-01-04 05:29:00,21.8,21.0,30.45,SE,134,0.0,0.0,97,0.00,,,0.00,weatherlink.com 1.10,2013-01-04 11:29:00,
2013-01-04 05:44:00,21.6,21.0,30.46,SE,134,0.0,0.0,96,0.00,,,0.00,weatherlink.com 1.10,2013-01-04 11:44:00,
2013-01-04 05:59:00,21.7,21.0,30.45,SE,134,0.0,0.0,96,0.00,,,0.00,weatherlink.com 1.10,2013-01-04 11:59:00,
2013-01-04 06:14:00,22.3,22.0,30.45,SE,134,0.0,0.0,97,0.00,,,0.00,weatherlink.com 1.10,2013-01-04 12:14:00,
2013-01-04 06:33:00,23.4,23.0,30.46,SE,134,0.0,0.0,97,0.00,,,0.00,weatherlink.com 1.10,2013-01-04 12:33:00,
2013-01-04 06:44:00,23.7,23.0,30.46,SE,134,0.0,0.0,96,0.00,,,0.00,weatherlink.com 1.10,2013-01-04 12:44:00,
2013-01-04 06:59:00,23.3,22.0,30.47,SE,134,0.0,0.0,96,0.00,,,0.00,weatherlink.com 1.10,2013-01-04 12:59:00,
2013-01-04 07:14:00,22.7,22.0,30.47,SE,134,0.0,0.0,96,0.00,,,0.00,weatherlink.com 1.10,2013-01-04 13:14:00,
2013-01-04 07:29:00,22.7,22.0,30.48,SE,134,0.0,0.0,96,0.00,,,0.00,weatherlink.com 1.10,2013-01-04 13:29:00,
2013-01-04 07:44:00,22.8,22.0,30.49,SE,134,0.0,0.0,96,0.00,,,0.00,weatherlink.com 1.10,2013-01-04 13:44:00,
2013-01-04 07:59:00,24.7,24.0,30.49,SE,134,0.0,0.0,97,0.00,,,0.00,weatherlink.com 1.10,2013-01-04 13:59:00,
2013-01-04 08:14:00,27.7,27.0,30.49,SE,134,0.0,0.0,98,0.00,,,0.00,weatherlink.com 1.10,2013-01-04 14:14:00,
2013-01-04 08:29:00,29.8,29.0,30.50,SW,221,0.0,0.0,97,0.00,,,0.00,weatherlink.com 1.10,2013-01-04 14:29:00,
2013-01-04 08:44:00,32.0,31.0,30.50,SE,131,0.0,0.0,94,0.00,,,0.00,weatherlink.com 1.10,2013-01-04 14:44:00,
2013-01-04 08:59:00,33.2,31.0,30.51,SSE,161,0.0,1.0,91,0.00,,,0.00,weatherlink.com 1.10,2013-01-04 14:59:00,
2013-01-04 09:14:00,36.2,32.0,30.52,ENE,72,0.0,0.0,86,0.00,,,0.00,weatherlink.com 1.10,2013-01-04 15:14:00,
2013-01-04 09:29:00,38.2,34.0,30.52,ESE,120,1.0,2.0,83,0.00,,,0.00,weatherlink.com 1.10,2013-01-04 15:29:00,
2013-01-04 09:44:00,39.0,32.0,30.51,East,84,2.0,3.0,76,0.00,,,0.00,weatherlink.com 1.10,2013-01-04 15:44:00,
2013-01-04 09:59:00,40.2,32.0,30.51,SSW,210,1.0,3.0,73,0.00,,,0.00,weatherlink.com 1.10,2013-01-04 15:59:00,
2013-01-04 10:15:00,40.4,32.0,30.51,WSW,257,0.0,4.0,71,0.00,,,0.00,weatherlink.com 1.10,2013-01-04 16:15:00,
2013-01-04 10:30:00,42.3,32.0,30.50,East,84,2.0,3.0,68,0.00,,,0.00,weatherlink.com 1.10,2013-01-04 16:30:00,
2013-01-04 10:45:00,43.4,33.0,30.50,SW,215,0.0,4.0,68,0.00,,,0.00,weatherlink.com 1.10,2013-01-04 16:45:00,
2013-01-04 11:00:00,45.5,33.0,30.49,SSW,201,1.0,3.0,63,0.00,,,0.00,weatherlink.com 1.10,2013-01-04 17:00:00,
2013-01-04 11:15:00,44.4,32.0,30.47,North,6,1.0,3.0,61,0.00,,,0.00,weatherlink.com 1.10,2013-01-04 17:15:00,
2013-01-04 11:30:00,46.0,32.0,30.47,ENE,74,0.0,3.0,59,0.00,,,0.00,weatherlink.com 1.10,2013-01-04 17:30:00,
2013-01-04 11:45:00,46.2,32.0,30.46,SSW,208,4.0,4.0,57,0.00,,,0.00,weatherlink.com 1.10,2013-01-04 17:45:00,
2013-01-04 12:02:00,46.0,31.0,30.45,West,266,1.0,3.0,56,0.00,,,0.00,weatherlink.com 1.10,2013-01-04 18:02:00,
2013-01-04 12:15:00,45.4,30.0,30.45,NNE,30,1.0,4.0,56,0.00,,,0.00,weatherlink.com 1.10,2013-01-04 18:15:00,
2013-01-04 12:30:00,46.9,31.0,30.45,NNE,15,0.0,4.0,55,0.00,,,0.00,weatherlink.com 1.10,2013-01-04 18:30:00,
2013-01-04 12:45:00,46.6,31.0,30.44,NW,305,3.0,6.0,54,0.00,,,0.00,weatherlink.com 1.10,2013-01-04 18:45:00,
2013-01-04 13:00:00,47.5,30.0,30.44,North,353,1.0,4.0,51,0.00,,,0.00,weatherlink.com 1.10,2013-01-04 19:00:00,
2013-01-04 13:15:00,48.2,30.0,30.42,ESE,115,1.0,6.0,50,0.00,,,0.00,weatherlink.com 1.10,2013-01-04 19:15:00,
2013-01-04 13:30:00,48.9,30.0,30.42,SW,215,1.0,3.0,48,0.00,,,0.00,weatherlink.com 1.10,2013-01-04 19:30:00,
2013-01-04 13:45:00,49.3,30.0,30.41,SE,144,2.0,4.0,47,0.00,,,0.00,weatherlink.com 1.10,2013-01-04 19:45:00,
2013-01-04 14:00:00,48.7,31.0,30.41,WSW,249,2.0,3.0,50,0.00,,,0.00,weatherlink.com 1.10,2013-01-04 20:00:00,
2013-01-04 14:15:00,48.3,29.0,30.41,NE,51,0.0,6.0,48,0.00,,,0.00,weatherlink.com 1.10,2013-01-04 20:15:00,
2013-01-04 14:30:00,47.8,30.0,30.41,North,350,2.0,6.0,50,0.00,,,0.00,weatherlink.com 1.10,2013-01-04 20:30:00,
2013-01-04 14:45:00,49.0,30.0,30.41,West,271,0.0,3.0,49,0.00,,,0.00,weatherlink.com 1.10,2013-01-04 20:45:00,
2013-01-04 15:00:00,48.3,29.0,30.41,WNW,295,1.0,4.0,48,0.00,,,0.00,weatherlink.com 1.10,2013-01-04 21:00:00,
2013-01-04 15:15:00,48.5,29.0,30.41,ENE,77,1.0,5.0,48,0.00,,,0.00,weatherlink.com 1.10,2013-01-04 21:15:00,
2013-01-04 15:45:00,48.2,29.0,30.41,West,263,0.0,3.0,48,0.00,,,0.00,weatherlink.com 1.10,2013-01-04 21:45:00,
2013-01-04 16:00:00,48.4,29.0,30.41,SSW,201,0.0,3.0,48,0.00,,,0.00,weatherlink.com 1.10,2013-01-04 22:00:00,
2013-01-04 16:15:00,47.2,30.0,30.41,SW,229,0.0,4.0,51,0.00,,,0.00,weatherlink.com 1.10,2013-01-04 22:15:00,
2013-01-04 16:30:00,46.7,30.0,30.41,WNW,301,0.0,2.0,52,0.00,,,0.00,weatherlink.com 1.10,2013-01-04 22:30:00,
2013-01-04 16:45:00,45.2,29.0,30.41,NW,311,0.0,3.0,54,0.00,,,0.00,weatherlink.com 1.10,2013-01-04 22:45:00,
2013-01-04 17:00:00,43.1,29.0,30.41,WNW,287,0.0,1.0,58,0.00,,,0.00,weatherlink.com 1.10,2013-01-04 23:00:00,
2013-01-04 17:15:00,41.3,29.0,30.41,North,356,0.0,0.0,61,0.00,,,0.00,weatherlink.com 1.10,2013-01-04 23:15:00,
2013-01-04 17:30:00,39.9,29.0,30.41,North,356,0.0,0.0,65,0.00,,,0.00,weatherlink.com 1.10,2013-01-04 23:30:00,
2013-01-04 17:45:00,38.3,29.0,30.42,North,356,0.0,0.0,68,0.00,,,0.00,weatherlink.com 1.10,2013-01-04 23:45:00,
2013-01-04 18:00:00,36.4,29.0,30.42,North,357,0.0,0.0,74,0.00,,,0.00,weatherlink.com 1.10,2013-01-05 00:00:00,
2013-01-04 18:15:00,35.6,29.0,30.42,North,356,0.0,0.0,77,0.00,,,0.00,weatherlink.com 1.10,2013-01-05 00:15:00,
2013-01-04 18:30:00,34.6,28.0,30.42,North,356,0.0,0.0,77,0.00,,,0.00,weatherlink.com 1.10,2013-01-05 00:30:00,
2013-01-04 18:45:00,33.9,28.0,30.43,North,356,0.0,0.0,80,0.00,,,0.00,weatherlink.com 1.10,2013-01-05 00:45:00,
2013-01-04 19:00:00,33.2,28.0,30.42,North,357,0.0,0.0,81,0.00,,,0.00,weatherlink.com 1.10,2013-01-05 01:00:00,
2013-01-04 19:15:00,32.3,27.0,30.42,North,356,0.0,0.0,82,0.00,,,0.00,weatherlink.com 1.10,2013-01-05 01:15:00,
2013-01-04 19:30:00,31.9,28.0,30.43,North,356,0.0,0.0,84,0.00,,,0.00,weatherlink.com 1.10,2013-01-05 01:30:00,
2013-01-04 19:45:00,31.4,27.0,30.43,North,356,0.0,0.0,84,0.00,,,0.00,weatherlink.com 1.10,2013-01-05 01:45:00,
2013-01-04 20:00:00,31.1,27.0,30.42,North,356,0.0,0.0,86,0.00,,,0.00,weatherlink.com 1.10,2013-01-05 02:00:00,
2013-01-04 20:15:00,30.6,27.0,30.42,North,356,0.0,0.0,87,0.00,,,0.00,weatherlink.com 1.10,2013-01-05 02:15:00,
2013-01-04 20:30:00,30.0,27.0,30.42,North,356,0.0,0.0,88,0.00,,,0.00,weatherlink.com 1.10,2013-01-05 02:30:00,
2013-01-04 20:45:00,29.6,27.0,30.42,North,356,0.0,0.0,89,0.00,,,0.00,weatherlink.com 1.10,2013-01-05 02:45:00,
2013-01-04 21:00:00,28.9,26.0,30.42,North,357,0.0,0.0,89,0.00,,,0.00,weatherlink.com 1.10,2013-01-05 03:00:00,
2013-01-04 21:15:00,28.6,26.0,30.42,North,356,0.0,0.0,91,0.00,,,0.00,weatherlink.com 1.10,2013-01-05 03:15:00,
2013-01-04 21:30:00,28.5,26.0,30.41,North,356,0.0,0.0,91,0.00,,,0.00,weatherlink.com 1.10,2013-01-05 03:30:00,
2013-01-04 21:45:00,28.3,26.0,30.41,North,356,0.0,0.0,90,0.00,,,0.00,weatherlink.com 1.10,2013-01-05 03:45:00,
2013-01-04 22:01:00,27.9,26.0,30.41,North,356,0.0,0.0,92,0.00,,,0.00,weatherlink.com 1.10,2013-01-05 04:01:00,
2013-01-04 22:16:00,27.7,26.0,30.41,North,356,0.0,0.0,92,0.00,,,0.00,weatherlink.com 1.10,2013-01-05 04:16:00,
2013-01-04 22:31:00,27.3,25.0,30.41,North,356,0.0,0.0,92,0.00,,,0.00,weatherlink.com 1.10,2013-01-05 04:31:00,
2013-01-04 22:46:00,27.1,25.0,30.41,North,357,0.0,0.0,93,0.00,,,0.00,weatherlink.com 1.10,2013-01-05 04:46:00,
2013-01-04 23:01:00,27.1,25.0,30.41,North,356,0.0,0.0,93,0.00,,,0.00,weatherlink.com 1.10,2013-01-05 05:01:00,
2013-01-04 23:31:00,27.1,25.0,30.40,North,356,0.0,0.0,93,0.00,,,0.00,weatherlink.com 1.10,2013-01-05 05:31:00,
2013-01-04 23:46:00,26.9,25.0,30.40,North,356,0.0,0.0,94,0.00,,,0.00,weatherlink.com 1.10,2013-01-05 05:46:00,